Time;durP1;ratioP1;P1;durP2;ratioP2;P2;SDS_P1;SDS_P2;PMS_P1;PMS_P2;Temp;Humidity;BMP_temperature;BMP_pressure;BME280_temperature;BME280_humidity;BME280_pressure;Samples;Min_cycle;Max_cycle;Signal;HPM_P1;HPM_P2
2023/07/19 00:00:00;;;;;;;2.47;1.77;;;25.90;49.80;;;;;;5090918;28;20208;-89
2023/07/19 00:02:25;;;;;;;2.20;1.83;;;25.80;49.80;;;;;;5080373;28;20181;-89
2023/07/19 00:04:51;;;;;;;2.00;1.80;;;25.80;49.70;;;;;;5068483;28;20171;-89
2023/07/19 00:07:17;;;;;;;2.90;1.77;;;25.80;49.80;;;;;;5065188;28;20605;-89
2023/07/19 00:09:46;;;;;;;2.40;1.70;;;25.80;49.80;;;;;;5063115;28;20184;-89
2023/07/19 00:12:11;;;;;;;1.93;1.80;;;25.80;49.80;;;;;;5063910;28;20295;-89
2023/07/19 00:14:40;;;;;;;2.27;1.73;;;25.80;49.80;;;;;;5068333;28;20679;-89
2023/07/19 00:17:09;;;;;;;2.30;1.90;;;25.70;49.80;;;;;;5079965;28;20557;-89
2023/07/19 00:19:37;;;;;;;2.23;1.77;;;25.70;49.80;;;;;;5065116;28;20220;-89
2023/07/19 00:22:03;;;;;;;2.43;1.80;;;25.70;49.80;;;;;;5061697;28;20581;-89
2023/07/19 00:24:32;;;;;;;2.00;1.80;;;25.70;49.80;;;;;;5066204;28;20176;-89
2023/07/19 00:26:58;;;;;;;2.07;1.70;;;25.70;49.80;;;;;;5084915;28;20457;-89
2023/07/19 00:29:24;;;;;;;2.20;1.70;;;25.70;49.70;;;;;;5066168;28;20577;-89
2023/07/19 00:31:55;;;;;;;2.10;1.80;;;25.70;49.70;;;;;;5072408;28;20195;-89
2023/07/19 00:34:21;;;;;;;2.20;1.70;;;25.70;49.80;;;;;;5048133;28;20206;-89
2023/07/19 00:36:47;;;;;;;1.87;1.70;;;25.60;49.70;;;;;;5061888;28;20665;-89
2023/07/19 00:39:16;;;;;;;1.90;1.77;;;25.60;49.80;;;;;;5046300;28;20506;-89
2023/07/19 00:41:41;;;;;;;2.60;1.83;;;25.70;49.80;;;;;;5066697;28;20172;-90
2023/07/19 00:44:10;;;;;;;2.10;1.77;;;25.70;49.80;;;;;;5062387;28;20187;-89
2023/07/19 00:46:39;;;;;;;1.77;1.50;;;25.60;49.80;;;;;;5082071;28;20480;-89
2023/07/19 00:49:09;;;;;;;1.90;1.70;;;25.60;49.80;;;;;;5059224;28;20551;-90
2023/07/19 00:51:35;;;;;;;2.00;1.80;;;25.60;49.80;;;;;;5089437;28;20567;-89
2023/07/19 00:54:01;;;;;;;2.33;1.90;;;25.60;49.80;;;;;;5061399;28;20593;-89
2023/07/19 00:56:27;;;;;;;2.37;1.90;;;25.60;49.80;;;;;;5067302;28;20245;-89
2023/07/19 00:58:53;;;;;;;1.63;1.53;;;25.60;49.80;;;;;;5067100;28;20179;-89
2023/07/19 01:01:22;;;;;;;2.00;1.77;;;25.60;49.80;;;;;;5063918;28;20188;-89
2023/07/19 01:03:47;;;;;;;2.70;1.90;;;25.60;49.80;;;;;;5061212;28;20247;-89
2023/07/19 01:06:13;;;;;;;1.87;1.67;;;25.50;49.80;;;;;;5067474;28;20187;-89
2023/07/19 01:08:39;;;;;;;1.70;1.60;;;25.50;49.80;;;;;;5063717;28;20176;-89
2023/07/19 01:11:04;;;;;;;2.10;1.83;;;25.60;49.80;;;;;;5083430;28;20549;-89
2023/07/19 01:13:33;;;;;;;2.20;1.70;;;25.50;49.80;;;;;;5081184;28;20560;-89
2023/07/19 01:16:02;;;;;;;2.23;2.00;;;25.50;49.80;;;;;;5077182;28;20280;-89
2023/07/19 01:18:30;;;;;;;2.63;1.97;;;25.50;49.70;;;;;;5063140;28;20250;-89
2023/07/19 01:20:56;;;;;;;1.67;1.57;;;25.50;49.70;;;;;;5064625;28;20207;-89
2023/07/19 01:23:22;;;;;;;1.90;1.73;;;25.50;49.70;;;;;;5086717;28;20206;-89
2023/07/19 01:25:48;;;;;;;2.00;1.80;;;25.50;49.80;;;;;;5063966;28;20462;-89
2023/07/19 01:28:17;;;;;;;2.27;1.90;;;25.50;49.80;;;;;;5083113;28;20175;-89
2023/07/19 01:30:45;;;;;;;2.30;1.90;;;25.50;49.80;;;;;;5063248;28;20486;-89
2023/07/19 01:33:11;;;;;;;1.87;1.70;;;25.40;49.70;;;;;;5069879;28;20172;-89
2023/07/19 01:35:37;;;;;;;2.40;1.70;;;25.40;49.80;;;;;;5062388;28;20180;-89
2023/07/19 01:38:03;;;;;;;2.77;1.70;;;25.40;49.80;;;;;;5085807;28;20287;-89
2023/07/19 01:40:28;;;;;;;2.97;1.97;;;25.40;49.80;;;;;;5082225;28;20348;-89
2023/07/19 01:42:57;;;;;;;3.90;2.07;;;25.40;49.80;;;;;;5066954;28;20182;-89
2023/07/19 01:45:26;;;;;;;2.63;1.73;;;25.40;49.80;;;;;;5071129;28;20561;-89
2023/07/19 01:47:52;;;;;;;2.13;1.93;;;25.40;49.80;;;;;;5095720;22;20221;-82
2023/07/19 01:50:20;;;;;;;2.03;1.83;;;25.40;49.80;;;;;;5099236;28;20178;-81
2023/07/19 01:52:46;;;;;;;2.13;1.80;;;25.30;49.70;;;;;;5101937;28;20198;-81
2023/07/19 01:55:18;;;;;;;1.63;1.53;;;25.40;49.80;;;;;;5101757;28;20190;-81
2023/07/19 01:57:44;;;;;;;2.00;1.80;;;25.40;49.80;;;;;;5100562;28;20740;-79
2023/07/19 02:00:10;;;;;;;2.80;1.87;;;25.40;49.80;;;;;;5099691;28;20202;-79
2023/07/19 02:02:36;;;;;;;2.30;1.97;;;25.40;49.80;;;;;;5099171;28;20184;-80
2023/07/19 02:05:17;;;;;;;1.93;1.73;;;25.40;49.80;;;;;;5097798;28;20174;-78
2023/07/19 02:07:44;;;;;;;2.17;1.67;;;25.40;49.80;;;;;;5099349;28;20177;-79
2023/07/19 02:10:13;;;;;;;1.90;1.73;;;25.40;49.70;;;;;;5099660;28;20459;-80
2023/07/19 02:12:41;;;;;;;1.97;1.77;;;25.40;49.70;;;;;;5099756;28;20186;-79
2023/07/19 02:15:10;;;;;;;2.20;1.87;;;25.40;49.70;;;;;;5099341;28;20250;-78
2023/07/19 02:17:36;;;;;;;4.70;2.07;;;25.40;49.60;;;;;;5099583;28;20178;-80
2023/07/19 02:20:02;;;;;;;1.77;1.67;;;25.40;49.70;;;;;;5100829;28;20218;-79
2023/07/19 02:22:31;;;;;;;2.23;1.47;;;25.30;49.60;;;;;;5102278;28;20178;-80
2023/07/19 02:25:04;;;;;;;2.00;1.80;;;25.40;49.70;;;;;;5100519;28;20171;-78
2023/07/19 02:27:32;;;;;;;2.10;1.80;;;25.40;49.70;;;;;;5101090;28;20175;-80
2023/07/19 02:30:01;;;;;;;1.57;1.43;;;25.40;49.70;;;;;;5105769;28;20227;-81
2023/07/19 02:32:27;;;;;;;1.97;1.70;;;25.40;49.70;;;;;;5104400;28;20178;-81
2023/07/19 02:34:53;;;;;;;2.17;1.97;;;25.30;49.70;;;;;;5105021;28;20345;-80
2023/07/19 02:37:24;;;;;;;2.33;1.80;;;25.30;49.70;;;;;;5105558;28;20185;-80
2023/07/19 02:39:53;;;;;;;2.33;1.70;;;25.30;49.70;;;;;;5102939;28;20206;-77
2023/07/19 02:42:19;;;;;;;1.90;1.70;;;25.30;49.70;;;;;;5102905;28;20174;-80
2023/07/19 02:44:45;;;;;;;4.40;1.90;;;25.30;49.70;;;;;;5103137;28;20178;-82
2023/07/19 02:47:12;;;;;;;2.57;1.93;;;25.30;49.70;;;;;;5102431;28;20181;-82
2023/07/19 02:49:41;;;;;;;2.10;1.90;;;25.20;49.70;;;;;;5102518;28;20182;-81
2023/07/19 02:52:08;;;;;;;1.87;1.70;;;25.20;49.60;;;;;;5103187;28;20175;-81
2023/07/19 02:54:35;;;;;;;2.87;1.73;;;25.20;49.70;;;;;;5103138;28;20174;-78
2023/07/19 02:57:01;;;;;;;2.23;1.70;;;25.20;49.70;;;;;;5102942;28;20197;-82
2023/07/19 03:09:31;;;;;;;3.13;1.90;;;25.10;49.70;;;;;;5146602;22;20558;-4
2023/07/19 03:12:00;;;;;;;2.53;1.80;;;25.20;49.70;;;;;;5122729;27;20858;-3
2023/07/19 03:14:26;;;;;;;2.17;1.83;;;25.20;49.70;;;;;;5115780;27;20166;-3
2023/07/19 03:16:51;;;;;;;1.83;1.57;;;25.20;49.80;;;;;;5123727;27;20190;-3
2023/07/19 03:19:17;;;;;;;1.80;1.60;;;25.10;49.70;;;;;;5135504;27;20170;-3
2023/07/19 03:21:46;;;;;;;2.30;1.80;;;25.10;49.80;;;;;;5126396;27;20173;-4
2023/07/19 03:24:12;;;;;;;2.00;1.80;;;25.10;49.80;;;;;;5136524;27;20458;-3
2023/07/19 03:26:38;;;;;;;2.30;1.87;;;25.10;49.80;;;;;;5104869;27;20221;-4
2023/07/19 03:29:07;;;;;;;2.20;1.97;;;25.10;49.70;;;;;;5137262;27;20252;-4
2023/07/19 03:31:35;;;;;;;2.10;1.83;;;25.10;49.70;;;;;;5124616;27;20185;-3
2023/07/19 03:34:02;;;;;;;3.23;1.70;;;25.10;49.70;;;;;;5117840;27;20177;-3
2023/07/19 03:36:28;;;;;;;3.10;1.70;;;25.10;49.70;;;;;;5124769;27;20166;-3
2023/07/19 03:38:57;;;;;;;2.40;1.90;;;25.10;50.10;;;;;;5097624;28;20170;-4
2023/07/19 03:41:23;;;;;;;2.10;1.90;;;25.10;49.70;;;;;;5120513;27;20570;-3
2023/07/19 03:43:49;;;;;;;2.07;1.87;;;25.10;49.70;;;;;;5097934;28;20434;-3
2023/07/19 03:46:18;;;;;;;3.03;1.70;;;25.10;49.70;;;;;;5101885;28;20542;-3
2023/07/19 03:48:46;;;;;;;2.00;1.80;;;25.00;49.60;;;;;;5115600;28;20166;-3
2023/07/19 03:51:12;;;;;;;1.93;1.73;;;25.10;49.60;;;;;;5119957;27;20174;-3
2023/07/19 03:53:38;;;;;;;1.90;1.70;;;25.10;49.60;;;;;;5096919;28;20233;-3
2023/07/19 03:56:06;;;;;;;1.90;1.70;;;25.00;49.60;;;;;;5117281;27;20173;-3
2023/07/19 03:58:39;;;;;;;1.93;1.67;;;25.00;49.60;;;;;;5095300;28;20192;-3
2023/07/19 04:01:05;;;;;;;2.67;2.00;;;25.00;49.60;;;;;;5097288;28;20282;-3
2023/07/19 04:03:30;;;;;;;3.60;2.00;;;25.00;49.60;;;;;;5107692;28;20211;-3
2023/07/19 04:05:58;;;;;;;2.33;2.00;;;25.00;49.60;;;;;;5113746;27;20166;-3
2023/07/19 04:08:27;;;;;;;2.00;1.80;;;25.00;49.60;;;;;;5123396;27;20268;-3
2023/07/19 04:10:53;;;;;;;2.07;1.80;;;25.00;49.50;;;;;;5094718;27;20201;-3
2023/07/19 04:13:18;;;;;;;2.20;1.80;;;25.00;49.50;;;;;;5106901;28;20465;-3
2023/07/19 04:15:44;;;;;;;1.97;1.70;;;25.00;49.60;;;;;;5112756;28;20174;-3
2023/07/19 04:18:10;;;;;;;1.60;1.50;;;25.00;49.50;;;;;;5107255;28;20574;-3
2023/07/19 04:20:38;;;;;;;2.10;1.90;;;25.00;49.50;;;;;;5098195;28;20202;-3
2023/07/19 04:23:04;;;;;;;1.90;1.80;;;25.00;49.50;;;;;;5127890;27;20178;-3
2023/07/19 04:25:33;;;;;;;1.80;1.70;;;24.90;49.50;;;;;;5098647;28;20170;-4
2023/07/19 04:27:59;;;;;;;2.07;1.90;;;25.00;49.50;;;;;;5125070;27;20229;-4
2023/07/19 04:30:25;;;;;;;2.87;1.70;;;25.00;49.50;;;;;;5099681;28;20252;-3
2023/07/19 04:32:54;;;;;;;2.60;2.00;;;24.90;49.50;;;;;;5099367;28;20555;-3
2023/07/19 04:35:26;;;;;;;2.43;1.87;;;25.00;49.50;;;;;;5113819;28;20238;-3
2023/07/19 04:37:51;;;;;;;2.40;1.80;;;25.00;49.50;;;;;;5096301;28;20326;-3
2023/07/19 04:40:17;;;;;;;1.60;1.50;;;24.90;49.60;;;;;;5113594;28;20296;-3
2023/07/19 04:42:43;;;;;;;2.00;1.80;;;24.90;49.50;;;;;;5117965;27;20621;-3
2023/07/19 04:45:13;;;;;;;2.17;1.80;;;24.90;49.50;;;;;;5093978;28;20264;-3
2023/07/19 04:47:38;;;;;;;2.77;1.67;;;24.90;49.50;;;;;;5094553;28;20226;-3
2023/07/19 04:50:08;;;;;;;2.50;1.93;;;24.90;49.50;;;;;;5105076;28;20683;-4
2023/07/19 04:52:34;;;;;;;2.67;1.87;;;25.00;49.50;;;;;;5113795;27;20166;-3
2023/07/19 04:55:02;;;;;;;1.90;1.70;;;25.00;49.50;;;;;;5101252;27;20189;-4
2023/07/19 04:57:34;;;;;;;2.10;1.90;;;25.00;49.50;;;;;;5132056;27;20723;-4
2023/07/19 05:00:00;;;;;;;2.03;1.77;;;25.00;49.50;;;;;;5125892;27;20233;-3
2023/07/19 05:02:26;;;;;;;1.60;1.47;;;25.00;49.40;;;;;;5121033;22;20304;-78
2023/07/19 05:04:53;;;;;;;2.07;1.83;;;24.90;49.50;;;;;;5116660;27;20562;-77
2023/07/19 05:07:18;;;;;;;2.57;2.00;;;24.90;49.40;;;;;;5134413;27;20229;-78
2023/07/19 05:09:44;;;;;;;2.57;1.70;;;24.90;49.40;;;;;;5133854;27;20256;-78
2023/07/19 05:12:10;;;;;;;2.13;1.60;;;24.90;49.40;;;;;;5115068;27;20518;-78
2023/07/19 05:14:39;;;;;;;2.03;1.80;;;24.90;49.30;;;;;;5098158;28;20166;-78
2023/07/19 05:17:05;;;;;;;2.07;1.70;;;24.90;49.40;;;;;;5115441;28;20185;-77
2023/07/19 05:19:31;;;;;;;2.30;1.73;;;24.90;49.40;;;;;;5098559;28;20568;-77
2023/07/19 05:21:57;;;;;;;1.93;1.80;;;24.90;49.40;;;;;;5099189;28;20563;-77
2023/07/19 05:24:22;;;;;;;2.73;1.90;;;24.90;49.40;;;;;;5099566;28;20253;-77
2023/07/19 05:26:51;;;;;;;1.80;1.60;;;24.90;49.30;;;;;;5099925;28;20177;-78
2023/07/19 05:29:22;;;;;;;2.63;1.90;;;24.90;49.30;;;;;;5097511;28;20173;-78
2023/07/19 05:31:48;;;;;;;2.30;1.90;;;24.90;49.30;;;;;;5111104;28;20166;-77
2023/07/19 05:34:13;;;;;;;5.77;1.83;;;24.90;49.30;;;;;;5093078;28;20246;-78
2023/07/19 05:36:39;;;;;;;2.90;1.80;;;24.90;49.30;;;;;;5093313;28;20170;-78
2023/07/19 05:39:08;;;;;;;2.40;1.80;;;24.90;49.40;;;;;;5093051;28;20226;-78
2023/07/19 05:41:33;;;;;;;1.70;1.60;;;24.90;49.50;;;;;;5109755;28;20158;-78
2023/07/19 05:43:59;;;;;;;2.00;1.80;;;24.90;49.50;;;;;;5093242;28;20218;-78
2023/07/19 05:46:28;;;;;;;2.10;1.60;;;24.90;49.50;;;;;;5091889;28;20338;-78
2023/07/19 05:48:57;;;;;;;2.13;1.53;;;24.90;49.50;;;;;;5095034;28;20162;-77
2023/07/19 05:51:23;;;;;;;1.60;1.50;;;24.90;49.50;;;;;;5097114;28;20174;-78
2023/07/19 05:53:48;;;;;;;2.07;1.80;;;24.80;49.60;;;;;;5101751;28;20238;-78
2023/07/19 05:56:14;;;;;;;2.83;1.73;;;24.90;49.50;;;;;;5094238;28;20266;-78
2023/07/19 05:58:42;;;;;;;3.13;2.00;;;24.90;49.50;;;;;;5094910;28;20166;-78
2023/07/19 06:01:09;;;;;;;3.77;2.10;;;24.90;49.90;;;;;;5091569;28;20247;-78
2023/07/19 06:03:35;;;;;;;2.80;1.90;;;24.90;49.50;;;;;;5096360;28;20247;-79
2023/07/19 06:06:05;;;;;;;2.97;2.27;;;24.80;49.60;;;;;;5094847;28;20201;-79
2023/07/19 06:08:32;;;;;;;2.53;2.00;;;24.80;49.50;;;;;;5096115;28;20177;-79
2023/07/19 06:10:58;;;;;;;2.27;1.90;;;24.80;49.50;;;;;;5096442;28;20265;-78
2023/07/19 06:13:24;;;;;;;2.30;1.93;;;24.80;49.60;;;;;;5094219;28;20201;-79
2023/07/19 06:15:53;;;;;;;2.50;1.87;;;24.80;49.60;;;;;;5095678;28;20198;-78
2023/07/19 06:18:19;;;;;;;3.40;1.93;;;24.80;49.60;;;;;;5096398;28;20432;-79
2023/07/19 06:20:45;;;;;;;2.83;1.80;;;24.80;49.60;;;;;;5113193;28;20231;-79
2023/07/19 06:23:14;;;;;;;2.20;1.93;;;24.80;49.60;;;;;;5109910;28;20174;-79
2023/07/19 06:25:41;;;;;;;2.10;1.80;;;24.80;49.60;;;;;;5117505;28;20183;-78
2023/07/19 06:28:07;;;;;;;2.27;2.07;;;24.80;49.50;;;;;;5110924;27;20597;-79
2023/07/19 06:30:33;;;;;;;2.83;1.93;;;24.80;49.60;;;;;;5112937;27;20272;-78
2023/07/19 06:32:59;;;;;;;3.07;2.23;;;24.80;49.50;;;;;;5114586;27;20320;-79
2023/07/19 06:35:28;;;;;;;3.50;2.10;;;24.80;49.50;;;;;;5114319;27;20539;-78
2023/07/19 06:37:56;;;;;;;2.20;1.87;;;24.80;49.60;;;;;;5114277;27;20273;-79
2023/07/19 06:40:22;;;;;;;3.77;2.10;;;24.80;49.60;;;;;;5097071;28;20297;-78
2023/07/19 06:42:47;;;;;;;3.93;2.30;;;24.80;49.60;;;;;;5094153;28;20629;-79
2023/07/19 06:45:18;;;;;;;5.53;2.30;;;24.70;49.60;;;;;;5094485;28;20167;-79
2023/07/19 06:47:44;;;;;;;2.93;2.30;;;24.80;49.60;;;;;;5093874;28;20281;-79
2023/07/19 06:50:13;;;;;;;2.60;2.00;;;24.80;49.60;;;;;;5093877;28;20516;-79
2023/07/19 06:52:38;;;;;;;2.77;2.33;;;24.80;49.60;;;;;;5093123;28;20174;-78
2023/07/19 06:55:08;;;;;;;4.67;2.50;;;24.80;49.60;;;;;;5092019;28;20166;-79
2023/07/19 06:57:34;;;;;;;5.73;2.43;;;24.80;49.60;;;;;;5091865;28;20638;-79
2023/07/19 06:59:59;;;;;;;3.77;2.23;;;24.80;49.50;;;;;;5090653;28;20425;-79
2023/07/19 07:02:25;;;;;;;4.87;2.10;;;24.80;49.50;;;;;;5089837;28;20427;-79
2023/07/19 07:04:54;;;;;;;3.60;2.30;;;24.90;49.50;;;;;;5087801;28;20182;-79
2023/07/19 07:07:20;;;;;;;2.90;2.20;;;24.90;49.90;;;;;;5089065;28;20175;-78
2023/07/19 07:09:46;;;;;;;3.60;2.60;;;24.90;49.50;;;;;;5106116;28;20205;-78
2023/07/19 07:12:15;;;;;;;3.57;2.33;;;24.90;49.50;;;;;;5103806;28;20351;-79
2023/07/19 07:14:41;;;;;;;2.83;2.00;;;24.90;49.50;;;;;;5087259;28;20170;-78
2023/07/19 07:17:07;;;;;;;2.53;2.10;;;24.90;49.50;;;;;;5091619;28;20452;-80
2023/07/19 07:19:33;;;;;;;2.20;2.00;;;24.90;49.50;;;;;;5091448;28;20204;-79
2023/07/19 07:21:59;;;;;;;1.97;1.70;;;24.90;49.50;;;;;;5096111;28;20620;-79
2023/07/19 07:24:38;;;;;;;3.23;2.20;;;24.90;49.50;;;;;;5096449;28;20167;-79
2023/07/19 07:27:06;;;;;;;3.30;2.40;;;24.90;49.50;;;;;;5097840;28;20181;-79
2023/07/19 07:29:32;;;;;;;2.80;2.20;;;24.90;49.50;;;;;;5098118;28;20174;-79
2023/07/19 07:32:01;;;;;;;3.73;2.13;;;24.90;49.50;;;;;;5098939;28;20181;-79
2023/07/19 07:34:27;;;;;;;3.13;2.03;;;24.90;49.50;;;;;;5110792;28;20205;-79
2023/07/19 07:36:52;;;;;;;4.10;2.03;;;24.90;49.50;;;;;;5092267;28;20201;-79
2023/07/19 07:39:19;;;;;;;2.83;1.90;;;24.90;49.50;;;;;;5091786;28;20170;-79
2023/07/19 07:41:47;;;;;;;2.77;2.20;;;24.90;49.50;;;;;;5123016;27;20182;-79
2023/07/19 07:44:17;;;;;;;3.63;2.47;;;24.90;49.50;;;;;;5117540;27;20204;-78
2023/07/19 07:46:47;;;;;;;3.30;2.40;;;24.90;49.50;;;;;;5135149;27;20173;-79
2023/07/19 07:49:13;;;;;;;2.67;2.23;;;24.90;49.50;;;;;;5130243;27;20235;-79
2023/07/19 07:51:42;;;;;;;3.07;2.30;;;24.90;49.50;;;;;;5129273;27;20167;-79
2023/07/19 07:54:08;;;;;;;3.93;2.07;;;25.00;49.40;;;;;;5128298;27;20165;-78
2023/07/19 07:56:34;;;;;;;2.40;2.07;;;25.00;49.40;;;;;;5109549;27;20177;-79
2023/07/19 07:59:13;;;;;;;2.93;2.40;;;25.10;49.40;;;;;;5109674;27;20186;-78
2023/07/19 08:01:38;;;;;;;3.93;2.27;;;25.10;49.40;;;;;;5106907;27;20193;-78
2023/07/19 08:04:06;;;;;;;1.90;1.80;;;25.10;49.40;;;;;;5105790;27;20230;-78
2023/07/19 08:06:32;;;;;;;3.37;2.17;;;25.10;49.40;;;;;;5113007;27;20172;-79
2023/07/19 08:08:57;;;;;;;2.43;2.13;;;25.10;49.40;;;;;;5116422;27;20170;-78
2023/07/19 08:11:26;;;;;;;2.50;2.10;;;25.10;49.40;;;;;;5113094;27;20170;-78
2023/07/19 08:13:53;;;;;;;2.97;2.20;;;25.10;49.40;;;;;;5128803;27;20539;-77
2023/07/19 08:16:21;;;;;;;3.63;2.30;;;25.00;49.50;;;;;;5126266;27;20173;-77
2023/07/19 08:18:50;;;;;;;2.23;1.90;;;25.00;49.50;;;;;;5107942;27;20176;-78
2023/07/19 08:21:19;;;;;;;2.63;2.43;;;25.00;49.50;;;;;;5108641;27;20610;-78
2023/07/19 08:23:45;;;;;;;2.40;2.20;;;25.10;49.50;;;;;;5108731;27;20196;-78
2023/07/19 08:26:14;;;;;;;2.37;2.00;;;25.10;49.40;;;;;;5126008;27;20614;-77
2023/07/19 08:28:44;;;;;;;2.47;2.27;;;25.10;49.50;;;;;;5108105;27;20484;-77
2023/07/19 08:31:10;;;;;;;2.83;2.23;;;25.10;49.40;;;;;;5106653;27;20268;-78
2023/07/19 08:33:36;;;;;;;4.33;2.27;;;25.20;49.40;;;;;;5123460;27;20188;-78
2023/07/19 08:36:05;;;;;;;3.60;2.30;;;25.20;49.40;;;;;;5112533;27;20174;-77
2023/07/19 08:38:31;;;;;;;4.60;2.10;;;25.20;49.40;;;;;;5108841;27;20174;-77
2023/07/19 08:40:57;;;;;;;4.57;2.30;;;25.20;49.40;;;;;;5128798;27;20198;-78
2023/07/19 08:43:27;;;;;;;2.70;2.40;;;25.20;49.40;;;;;;5109396;27;20565;-78
2023/07/19 08:45:53;;;;;;;3.07;2.40;;;25.20;49.40;;;;;;5107885;27;20213;-78
2023/07/19 08:48:19;;;;;;;3.60;2.40;;;25.30;49.40;;;;;;5108893;27;20264;-78
2023/07/19 08:50:51;;;;;;;3.80;2.03;;;25.30;49.40;;;;;;5108827;27;20174;-78
2023/07/19 08:53:17;;;;;;;2.70;2.20;;;25.30;49.40;;;;;;5110856;27;20288;-79
2023/07/19 08:55:46;;;;;;;6.07;2.20;;;25.30;49.40;;;;;;5127996;27;20176;-78
2023/07/19 08:58:19;;;;;;;2.90;2.20;;;25.30;49.40;;;;;;5107978;27;20173;-78
2023/07/19 09:00:47;;;;;;;2.83;2.27;;;25.30;49.40;;;;;;5107223;27;20246;-78
2023/07/19 09:03:14;;;;;;;3.20;2.30;;;25.30;49.80;;;;;;5108348;27;20185;-78
2023/07/19 09:05:41;;;;;;;3.83;2.30;;;25.40;49.40;;;;;;5105898;27;20416;-78
2023/07/19 09:08:10;;;;;;;4.60;2.40;;;25.40;49.40;;;;;;5109353;27;20812;-79
2023/07/19 09:10:44;;;;;;;2.97;2.10;;;25.40;49.40;;;;;;5130876;27;20217;-79
2023/07/19 09:13:10;;;;;;;5.13;2.60;;;25.40;49.80;;;;;;5113898;27;20179;-80
2023/07/19 09:15:36;;;;;;;4.03;2.13;;;25.40;49.40;;;;;;5110926;27;20174;-79
2023/07/19 09:18:05;;;;;;;2.60;2.30;;;25.40;49.40;;;;;;5125750;27;20166;-77
2023/07/19 09:20:37;;;;;;;4.53;2.23;;;25.40;49.40;;;;;;5126770;27;20197;-77
2023/07/19 09:23:05;;;;;;;2.50;2.13;;;25.30;49.40;;;;;;5107238;27;20234;-77
2023/07/19 09:25:31;;;;;;;3.40;2.53;;;25.40;49.50;;;;;;5124418;27;20189;-77
2023/07/19 09:27:57;;;;;;;4.43;2.30;;;25.30;49.40;;;;;;5107171;28;20470;-77
2023/07/19 09:30:23;;;;;;;5.17;2.27;;;25.40;49.50;;;;;;5107158;27;20173;-76
2023/07/19 09:33:04;;;;;;;2.80;2.50;;;25.40;49.40;;;;;;5108945;27;20174;-78
2023/07/19 09:35:33;;;;;;;2.53;2.20;;;25.40;49.50;;;;;;5108071;28;20577;-77
2023/07/19 09:37:59;;;;;;;2.87;2.17;;;25.40;49.50;;;;;;5124596;27;20166;-78
2023/07/19 09:40:24;;;;;;;2.93;2.50;;;25.40;49.50;;;;;;5105868;27;20212;-77
2023/07/19 09:42:51;;;;;;;2.47;2.10;;;25.40;49.40;;;;;;5106340;28;20226;-77
2023/07/19 09:45:20;;;;;;;3.30;2.43;;;25.50;49.50;;;;;;5105562;28;20161;-78
2023/07/19 09:47:48;;;;;;;3.17;2.37;;;25.50;49.50;;;;;;5121218;28;20205;-77
2023/07/19 09:50:14;;;;;;;4.23;2.60;;;25.50;49.50;;;;;;5104468;28;20373;-78
2023/07/19 09:52:43;;;;;;;4.13;2.50;;;25.50;49.50;;;;;;5106592;28;20197;-78
2023/07/19 09:55:11;;;;;;;2.70;2.13;;;25.50;49.60;;;;;;5124367;28;20384;-78
2023/07/19 09:57:42;;;;;;;3.90;2.37;;;25.50;49.50;;;;;;5107701;28;20712;-78
2023/07/19 10:00:09;;;;;;;3.10;2.30;;;25.50;49.50;;;;;;5106390;28;20205;-78
2023/07/19 10:02:35;;;;;;;2.90;2.33;;;25.60;49.50;;;;;;5104649;28;20492;-76
2023/07/19 10:05:08;;;;;;;4.60;2.23;;;25.60;49.40;;;;;;5124950;28;20346;-77
2023/07/19 10:07:38;;;;;;;3.90;2.23;;;25.60;49.40;;;;;;5124852;28;20570;-77
2023/07/19 10:10:05;;;;;;;4.33;2.37;;;25.60;49.50;;;;;;5108626;28;20213;-78
2023/07/19 10:12:32;;;;;;;4.10;2.30;;;25.60;49.40;;;;;;5108173;28;20173;-78
2023/07/19 10:15:09;;;;;;;4.10;2.40;;;25.60;49.50;;;;;;5106911;28;20188;-78
2023/07/19 10:17:41;;;;;;;2.63;2.20;;;25.60;49.50;;;;;;5106561;28;20173;-78
2023/07/19 10:20:15;;;;;;;3.57;2.60;;;25.60;49.60;;;;;;5109049;28;20198;-78
2023/07/19 10:22:48;;;;;;;2.37;1.90;;;25.60;49.60;;;;;;5105535;28;20166;-78
2023/07/19 10:25:24;;;;;;;3.77;2.40;;;25.70;49.60;;;;;;5105726;28;20166;-78
2023/07/19 10:27:56;;;;;;;4.93;2.10;;;25.60;49.50;;;;;;5124990;28;20226;-78
2023/07/19 10:30:45;;;;;;;3.53;2.03;;;25.70;49.60;;;;;;5123921;28;20252;-77
2023/07/19 10:33:12;;;;;;;2.90;2.20;;;25.70;49.60;;;;;;5122904;28;20334;-78
2023/07/19 10:35:39;;;;;;;2.57;2.20;;;25.80;50.00;;;;;;5123103;28;20547;-78
2023/07/19 10:38:05;;;;;;;3.40;2.30;;;25.80;49.50;;;;;;5104111;28;20465;-78
2023/07/19 10:40:31;;;;;;;3.83;2.30;;;25.80;49.40;;;;;;5103980;28;20201;-79
2023/07/19 10:42:57;;;;;;;4.67;2.30;;;25.90;49.50;;;;;;5104333;28;20175;-78
2023/07/19 10:45:27;;;;;;;5.20;2.23;;;25.90;49.50;;;;;;5105468;28;20162;-79
2023/07/19 10:47:53;;;;;;;2.70;2.20;;;25.90;49.50;;;;;;5105762;27;20192;-79
2023/07/19 10:50:23;;;;;;;4.13;2.03;;;26.00;49.50;;;;;;5111938;27;20497;-79
2023/07/19 10:52:50;;;;;;;3.40;2.13;;;26.10;49.60;;;;;;5111642;27;20181;-78
2023/07/19 10:55:16;;;;;;;3.00;2.20;;;26.10;49.60;;;;;;5109231;27;20434;-79
2023/07/19 10:57:43;;;;;;;3.63;2.27;;;26.10;49.60;;;;;;5110461;27;20214;-79
2023/07/19 11:00:13;;;;;;;2.37;1.90;;;26.10;49.60;;;;;;5112174;27;20197;-79
2023/07/19 11:02:42;;;;;;;3.23;2.30;;;26.10;49.60;;;;;;5110093;27;20208;-79
2023/07/19 11:05:11;;;;;;;2.93;2.13;;;26.10;49.60;;;;;;5108524;27;20230;-79
2023/07/19 11:07:36;;;;;;;2.30;2.10;;;26.10;49.60;;;;;;5107968;27;20433;-79
2023/07/19 11:10:03;;;;;;;2.67;2.30;;;26.20;49.60;;;;;;5111599;27;20170;-79
2023/07/19 11:12:33;;;;;;;3.47;2.40;;;26.20;49.70;;;;;;5115657;27;20165;-78
2023/07/19 11:15:06;;;;;;;2.70;2.03;;;26.20;49.60;;;;;;5114443;27;20177;-78
2023/07/19 11:17:32;;;;;;;3.23;2.00;;;26.20;49.60;;;;;;5107493;27;20166;-79
2023/07/19 11:19:59;;;;;;;2.57;2.10;;;26.30;49.60;;;;;;5108247;27;20277;-78
2023/07/19 11:22:27;;;;;;;3.43;1.90;;;26.30;49.60;;;;;;5126737;27;20165;-78
2023/07/19 11:24:53;;;;;;;2.90;2.37;;;26.40;49.60;;;;;;5110603;27;20280;-78
2023/07/19 11:27:34;;;;;;;2.27;2.00;;;26.40;49.50;;;;;;5110256;27;20181;-78
2023/07/19 11:29:59;;;;;;;2.93;2.00;;;26.40;49.60;;;;;;5129801;27;20742;-78
2023/07/19 11:32:28;;;;;;;4.43;2.10;;;26.40;49.50;;;;;;5110808;27;20165;-78
2023/07/19 11:34:56;;;;;;;3.40;2.23;;;26.50;49.60;;;;;;5129086;27;20169;-78
2023/07/19 11:37:38;;;;;;;3.27;2.40;;;26.50;49.50;;;;;;5110731;27;20187;-78
2023/07/19 11:40:09;;;;;;;2.70;1.90;;;26.50;49.40;;;;;;5127099;27;20197;-78
2023/07/19 11:42:46;;;;;;;2.93;2.10;;;26.60;49.50;;;;;;5107019;27;20226;-77
2023/07/19 11:45:21;;;;;;;2.33;2.10;;;26.60;49.50;;;;;;5107345;27;20161;-78
2023/07/19 11:47:52;;;;;;;2.93;2.20;;;26.60;49.50;;;;;;5108339;27;20234;-78
2023/07/19 11:50:23;;;;;;;3.30;2.10;;;26.60;49.50;;;;;;5106424;27;20170;-78
2023/07/19 11:52:54;;;;;;;3.10;2.23;;;26.60;49.50;;;;;;5106912;27;20173;-78
2023/07/19 11:55:23;;;;;;;2.57;2.00;;;26.60;49.40;;;;;;5107202;27;20170;-78
2023/07/19 11:57:51;;;;;;;2.97;2.00;;;26.70;49.50;;;;;;5104531;27;20188;-78
2023/07/19 12:00:24;;;;;;;2.27;2.07;;;26.70;49.40;;;;;;5113289;27;20288;-78
2023/07/19 12:02:51;;;;;;;2.63;2.03;;;26.80;49.50;;;;;;5113011;27;20213;-78
2023/07/19 12:05:19;;;;;;;3.20;1.97;;;26.80;49.50;;;;;;5111292;27;20173;-77
2023/07/19 12:07:46;;;;;;;3.77;2.43;;;26.80;49.40;;;;;;5109398;27;20201;-78
2023/07/19 12:10:18;;;;;;;3.30;2.30;;;26.90;49.30;;;;;;5126297;27;20177;-78
2023/07/19 12:12:45;;;;;;;2.83;2.30;;;26.90;49.30;;;;;;5114045;27;20178;-78
2023/07/19 12:15:11;;;;;;;2.50;2.10;;;26.90;49.30;;;;;;5091853;28;20621;-79
2023/07/19 12:17:37;;;;;;;3.23;2.33;;;26.90;49.30;;;;;;5095657;28;20239;-78
2023/07/19 12:20:05;;;;;;;2.50;2.20;;;26.90;49.30;;;;;;5095090;28;20209;-79
2023/07/19 12:22:32;;;;;;;2.20;1.80;;;26.90;49.30;;;;;;5094747;28;20720;-78
2023/07/19 12:24:58;;;;;;;3.90;2.10;;;27.00;49.40;;;;;;5095214;28;20261;-78
2023/07/19 12:27:28;;;;;;;2.93;2.33;;;27.00;49.40;;;;;;5094529;28;20257;-77
2023/07/19 12:29:53;;;;;;;2.20;2.00;;;27.00;49.40;;;;;;5092592;28;20700;-78
2023/07/19 12:32:23;;;;;;;6.33;2.53;;;27.00;49.50;;;;;;5088887;28;20186;-78
2023/07/19 12:34:48;;;;;;;2.30;1.83;;;27.00;49.40;;;;;;5088029;28;20170;-78
2023/07/19 12:37:17;;;;;;;2.83;2.20;;;27.00;49.40;;;;;;5108954;27;20273;-79
2023/07/19 12:39:43;;;;;;;2.83;2.13;;;27.00;49.40;;;;;;5108836;27;20189;-78
2023/07/19 12:42:10;;;;;;;2.27;2.07;;;27.10;49.50;;;;;;5098022;28;20582;-79
2023/07/19 12:44:41;;;;;;;3.43;1.97;;;27.10;49.40;;;;;;5095196;28;20184;-79
2023/07/19 12:47:07;;;;;;;3.10;2.13;;;27.10;49.40;;;;;;5121704;27;20166;-79
2023/07/19 12:49:33;;;;;;;2.33;1.90;;;27.10;49.30;;;;;;5108517;27;20732;-80
2023/07/19 12:52:01;;;;;;;2.10;1.80;;;27.10;49.30;;;;;;5103204;27;20185;-79
2023/07/19 12:54:27;;;;;;;2.97;1.93;;;27.10;49.30;;;;;;5110453;27;20241;-79
2023/07/19 12:56:54;;;;;;;2.83;2.30;;;27.20;49.40;;;;;;5118621;27;20177;-78
2023/07/19 12:59:20;;;;;;;2.47;2.00;;;27.20;49.40;;;;;;5094428;28;20702;-78